INFORMAÇÕES DO AERODROMO
Icao Aerodromo ENSB Nome do Aerodromo Svalbard Airport, Longyear Cidade Longyearbyen
Código GPS ENSB Elevação Média 88 ft Tipo de Aerodromo Aeroporto Médio Porte

INFORMAÇÃO DE PISTA
Pista 10 Comprimento da Pista 7608 ft Largura da Pista 148 ft
Elevação da Pista 63 ft Distância de Area de Escape da Pista 199 ft Orientação da Pista 105
Pista 28 Comprimento da Pista 7608 ft Largura da Pista 148 ft
Elevação da Pista 73 ft Distância de Area de Escape da Pista 395 ft Orientação da Pista 285

FREQUÊNCIAS DO AERODROMO
Tipo AFIS Nome INFO Frequência 118.1 MHZ
Tipo AFIS Nome INFO Frequência 884 MHZ

INFORMAÇÕES DE NAVEGAÇÃO PRÓXIMO AO AERODROMO

Informações de Meteorologia(METAR atual)
METAR DE ENSB
ADDS - METARS form results

(0928 UTC 21 May 2019)
Data provider http://aviationweather.gov/metar/data/
 
METAR text: ENSB 210920Z 36005KT 320V020 9999 BKN020 M03/M08 Q1029 NOSIG RMK WIND 1400FT 01004KT
Conditions at: ENSB (SVALBARD/LONGYEA, NO) observed 0920 UTC 21 May 2019
Temperature: -3.0°C (27°F)
Dewpoint: -8.0°C (18°F) [RH = 68%]
Pressure (altimeter): 30.38 inches Hg (1029.0 mb)
Winds: from the N (360 degrees) at 6 MPH (5 knots; 2.6 m/s)
Visibility: 6 or more miles (10+ km)
Ceiling: 2000 feet AGL
Clouds: broken clouds at 2000 feet AGL
Weather: no significant weather observed at this time

METAR text: ENSB 210850Z 36006KT 9999 BKN020 M03/M08 Q1029 NOSIG RMK WIND 1400FT 02004KT
Conditions at: ENSB (SVALBARD/LONGYEA, NO) observed 0850 UTC 21 May 2019
Temperature: -3.0°C (27°F)
Dewpoint: -8.0°C (18°F) [RH = 68%]
Pressure (altimeter): 30.38 inches Hg (1029.0 mb)
Winds: from the N (360 degrees) at 7 MPH (6 knots; 3.1 m/s)
Visibility: 6 or more miles (10+ km)
Ceiling: 2000 feet AGL
Clouds: broken clouds at 2000 feet AGL
Weather: no significant weather observed at this time

Forecast for: ENSB (SVALBARD/LONGYEA, NO)
Text: TAF ENSB 2106/2206 36008KT 9999 BKN020
Forecast period: 0600 UTC 21 May 2019 to 0600 UTC 22 May 2019
Forecast type: FROM: standard forecast or significant change
Winds: from the N (360 degrees) at 9 MPH (8 knots; 4.1 m/s)
Visibility: 6 or more miles 10+ km)
Ceiling: 2000 feet AGL
Clouds: broken clouds at 2000 feet AGL
Weather: no significant weather forecast for this period

MAPA DO AERODROMO


Desenvolvido por Virtual Airlines Manager




Modificado por Servidor Brasil Amigos